sensor_id;sensor_type;location;lat;lon;timestamp;temperature;humidity
20911;DHT22;10615;42.702;23.314;2022-07-05T00:00:50;22.70;51.20
20911;DHT22;10615;42.702;23.314;2022-07-05T00:01:51;22.60;51.20
20911;DHT22;10615;42.702;23.314;2022-07-05T00:02:51;22.70;51.10
20911;DHT22;10615;42.702;23.314;2022-07-05T00:03:52;22.60;51.10
20911;DHT22;10615;42.702;23.314;2022-07-05T00:04:53;22.60;51.00
20911;DHT22;10615;42.702;23.314;2022-07-05T00:05:54;22.60;51.00
20911;DHT22;10615;42.702;23.314;2022-07-05T00:06:55;22.60;51.00
20911;DHT22;10615;42.702;23.314;2022-07-05T00:08:14;22.60;50.90
20911;DHT22;10615;42.702;23.314;2022-07-05T00:09:15;22.60;50.70
20911;DHT22;10615;42.702;23.314;2022-07-05T00:10:16;22.60;50.70
20911;DHT22;10615;42.702;23.314;2022-07-05T00:11:17;22.60;50.70
20911;DHT22;10615;42.702;23.314;2022-07-05T00:12:19;22.60;50.70
20911;DHT22;10615;42.702;23.314;2022-07-05T00:13:20;22.60;50.80
20911;DHT22;10615;42.702;23.314;2022-07-05T00:14:21;22.60;50.80
20911;DHT22;10615;42.702;23.314;2022-07-05T00:15:22;22.60;50.90
20911;DHT22;10615;42.702;23.314;2022-07-05T00:16:23;22.60;50.80
20911;DHT22;10615;42.702;23.314;2022-07-05T00:17:24;22.60;50.90
20911;DHT22;10615;42.702;23.314;2022-07-05T00:18:24;22.60;50.90
20911;DHT22;10615;42.702;23.314;2022-07-05T00:19:25;22.60;50.90
20911;DHT22;10615;42.702;23.314;2022-07-05T00:20:26;22.50;50.80
20911;DHT22;10615;42.702;23.314;2022-07-05T00:21:27;22.50;50.90
20911;DHT22;10615;42.702;23.314;2022-07-05T00:22:27;22.50;50.90
20911;DHT22;10615;42.702;23.314;2022-07-05T00:23:28;22.50;50.90
20911;DHT22;10615;42.702;23.314;2022-07-05T00:24:29;22.50;50.90
20911;DHT22;10615;42.702;23.314;2022-07-05T00:25:30;22.40;51.00
20911;DHT22;10615;42.702;23.314;2022-07-05T00:26:30;22.40;51.10
20911;DHT22;10615;42.702;23.314;2022-07-05T00:27:31;22.40;51.20
20911;DHT22;10615;42.702;23.314;2022-07-05T00:28:32;22.40;51.30
20911;DHT22;10615;42.702;23.314;2022-07-05T00:29:33;22.40;51.30
20911;DHT22;10615;42.702;23.314;2022-07-05T00:30:33;22.30;51.40
20911;DHT22;10615;42.702;23.314;2022-07-05T00:31:34;22.30;51.40
20911;DHT22;10615;42.702;23.314;2022-07-05T00:32:36;22.30;51.50
20911;DHT22;10615;42.702;23.314;2022-07-05T00:33:37;22.30;51.60
20911;DHT22;10615;42.702;23.314;2022-07-05T00:34:37;22.30;51.70
20911;DHT22;10615;42.702;23.314;2022-07-05T00:35:38;22.20;51.70
20911;DHT22;10615;42.702;23.314;2022-07-05T00:36:39;22.10;51.70
20911;DHT22;10615;42.702;23.314;2022-07-05T00:37:40;22.20;51.80
20911;DHT22;10615;42.702;23.314;2022-07-05T00:38:40;22.20;51.80
20911;DHT22;10615;42.702;23.314;2022-07-05T00:39:41;22.20;51.80
20911;DHT22;10615;42.702;23.314;2022-07-05T00:40:43;22.10;51.70
20911;DHT22;10615;42.702;23.314;2022-07-05T00:41:44;22.10;51.80
20911;DHT22;10615;42.702;23.314;2022-07-05T00:42:45;22.10;51.90
20911;DHT22;10615;42.702;23.314;2022-07-05T00:44:03;22.10;51.90
20911;DHT22;10615;42.702;23.314;2022-07-05T00:45:06;22.10;52.10
20911;DHT22;10615;42.702;23.314;2022-07-05T00:46:07;22.10;52.10
20911;DHT22;10615;42.702;23.314;2022-07-05T00:47:09;22.10;52.20
20911;DHT22;10615;42.702;23.314;2022-07-05T00:48:10;22.10;52.30
20911;DHT22;10615;42.702;23.314;2022-07-05T00:49:11;22.00;52.40
20911;DHT22;10615;42.702;23.314;2022-07-05T00:50:12;22.00;52.50
20911;DHT22;10615;42.702;23.314;2022-07-05T00:51:12;22.00;52.60
20911;DHT22;10615;42.702;23.314;2022-07-05T00:52:14;22.00;52.70
20911;DHT22;10615;42.702;23.314;2022-07-05T00:53:15;21.90;52.70
20911;DHT22;10615;42.702;23.314;2022-07-05T00:54:16;21.90;52.70
20911;DHT22;10615;42.702;23.314;2022-07-05T00:55:17;21.90;52.80
20911;DHT22;10615;42.702;23.314;2022-07-05T00:56:19;21.90;52.90
20911;DHT22;10615;42.702;23.314;2022-07-05T00:57:22;21.90;53.00
20911;DHT22;10615;42.702;23.314;2022-07-05T00:58:22;21.80;52.90
20911;DHT22;10615;42.702;23.314;2022-07-05T00:59:23;21.80;52.90
20911;DHT22;10615;42.702;23.314;2022-07-05T01:00:24;21.80;53.00
20911;DHT22;10615;42.702;23.314;2022-07-05T01:01:26;21.80;53.00
20911;DHT22;10615;42.702;23.314;2022-07-05T01:02:27;21.80;53.00
20911;DHT22;10615;42.702;23.314;2022-07-05T01:03:29;21.80;53.00
20911;DHT22;10615;42.702;23.314;2022-07-05T01:04:29;21.80;53.00
20911;DHT22;10615;42.702;23.314;2022-07-05T01:05:32;21.80;53.00
20911;DHT22;10615;42.702;23.314;2022-07-05T01:06:34;21.80;53.00
20911;DHT22;10615;42.702;23.314;2022-07-05T01:07:34;21.80;53.00
20911;DHT22;10615;42.702;23.314;2022-07-05T01:08:38;21.80;53.10
20911;DHT22;10615;42.702;23.314;2022-07-05T01:09:39;21.80;53.10
20911;DHT22;10615;42.702;23.314;2022-07-05T01:10:41;21.80;53.10
20911;DHT22;10615;42.702;23.314;2022-07-05T01:11:43;21.90;53.10
20911;DHT22;10615;42.702;23.314;2022-07-05T01:12:45;21.80;52.90
20911;DHT22;10615;42.702;23.314;2022-07-05T01:13:46;21.80;52.80
20911;DHT22;10615;42.702;23.314;2022-07-05T01:14:47;21.90;52.80
20911;DHT22;10615;42.702;23.314;2022-07-05T01:15:49;21.80;52.70
20911;DHT22;10615;42.702;23.314;2022-07-05T01:16:52;21.90;52.80
20911;DHT22;10615;42.702;23.314;2022-07-05T01:17:53;21.90;52.50
20911;DHT22;10615;42.702;23.314;2022-07-05T01:18:54;21.90;52.60
20911;DHT22;10615;42.702;23.314;2022-07-05T01:19:55;21.90;52.70
20911;DHT22;10615;42.702;23.314;2022-07-05T01:20:56;21.80;52.60
20911;DHT22;10615;42.702;23.314;2022-07-05T01:21:57;21.90;52.70
20911;DHT22;10615;42.702;23.314;2022-07-05T01:23:04;21.90;52.70
20911;DHT22;10615;42.702;23.314;2022-07-05T01:24:06;21.90;52.80
20911;DHT22;10615;42.702;23.314;2022-07-05T01:25:07;21.90;52.80
20911;DHT22;10615;42.702;23.314;2022-07-05T01:26:08;21.90;52.90
20911;DHT22;10615;42.702;23.314;2022-07-05T01:27:09;21.90;53.00
20911;DHT22;10615;42.702;23.314;2022-07-05T01:28:09;21.90;53.10
20911;DHT22;10615;42.702;23.314;2022-07-05T01:29:10;22.00;53.20
20911;DHT22;10615;42.702;23.314;2022-07-05T01:30:11;22.00;53.30
20911;DHT22;10615;42.702;23.314;2022-07-05T01:31:12;22.00;53.30
20911;DHT22;10615;42.702;23.314;2022-07-05T01:32:13;22.00;53.10
20911;DHT22;10615;42.702;23.314;2022-07-05T01:33:14;22.00;53.70
20911;DHT22;10615;42.702;23.314;2022-07-05T01:34:15;22.00;52.90
20911;DHT22;10615;42.702;23.314;2022-07-05T01:35:17;21.90;52.80
20911;DHT22;10615;42.702;23.314;2022-07-05T01:36:21;21.90;52.80
20911;DHT22;10615;42.702;23.314;2022-07-05T01:37:22;21.90;52.80
20911;DHT22;10615;42.702;23.314;2022-07-05T01:38:24;21.90;52.80
20911;DHT22;10615;42.702;23.314;2022-07-05T01:39:24;21.90;52.80
20911;DHT22;10615;42.702;23.314;2022-07-05T01:40:25;21.90;52.70
20911;DHT22;10615;42.702;23.314;2022-07-05T01:41:26;21.80;52.70
20911;DHT22;10615;42.702;23.314;2022-07-05T01:42:27;21.80;52.70
20911;DHT22;10615;42.702;23.314;2022-07-05T01:43:27;21.80;52.70
20911;DHT22;10615;42.702;23.314;2022-07-05T01:44:30;21.80;52.70
20911;DHT22;10615;42.702;23.314;2022-07-05T01:45:31;21.80;52.80
20911;DHT22;10615;42.702;23.314;2022-07-05T01:46:41;21.70;52.80
20911;DHT22;10615;42.702;23.314;2022-07-05T01:47:43;21.70;52.90
20911;DHT22;10615;42.702;23.314;2022-07-05T01:48:45;21.70;52.90
20911;DHT22;10615;42.702;23.314;2022-07-05T01:49:48;21.70;52.90
20911;DHT22;10615;42.702;23.314;2022-07-05T01:51:12;21.70;53.10
20911;DHT22;10615;42.702;23.314;2022-07-05T01:52:16;21.60;53.10
20911;DHT22;10615;42.702;23.314;2022-07-05T01:53:23;21.70;53.10
20911;DHT22;10615;42.702;23.314;2022-07-05T01:54:24;21.60;53.10
20911;DHT22;10615;42.702;23.314;2022-07-05T01:55:25;21.60;53.10
20911;DHT22;10615;42.702;23.314;2022-07-05T01:56:25;21.60;53.10
20911;DHT22;10615;42.702;23.314;2022-07-05T01:57:26;21.60;53.10
20911;DHT22;10615;42.702;23.314;2022-07-05T01:58:27;21.60;53.10
20911;DHT22;10615;42.702;23.314;2022-07-05T01:59:28;21.70;53.20
20911;DHT22;10615;42.702;23.314;2022-07-05T02:00:29;21.60;53.10
20911;DHT22;10615;42.702;23.314;2022-07-05T02:01:35;21.60;53.10
20911;DHT22;10615;42.702;23.314;2022-07-05T02:02:40;21.60;53.20
20911;DHT22;10615;42.702;23.314;2022-07-05T02:03:43;21.70;53.20
20911;DHT22;10615;42.702;23.314;2022-07-05T02:04:45;21.60;53.20
20911;DHT22;10615;42.702;23.314;2022-07-05T02:05:46;21.60;53.20
20911;DHT22;10615;42.702;23.314;2022-07-05T02:06:47;21.60;53.30
20911;DHT22;10615;42.702;23.314;2022-07-05T02:07:50;21.60;53.40
20911;DHT22;10615;42.702;23.314;2022-07-05T02:08:51;21.60;53.40
20911;DHT22;10615;42.702;23.314;2022-07-05T02:09:52;21.60;53.40
20911;DHT22;10615;42.702;23.314;2022-07-05T02:10:52;21.60;53.40
20911;DHT22;10615;42.702;23.314;2022-07-05T02:11:53;21.60;53.40
20911;DHT22;10615;42.702;23.314;2022-07-05T02:12:54;21.60;53.40
20911;DHT22;10615;42.702;23.314;2022-07-05T02:13:54;21.60;53.50
20911;DHT22;10615;42.702;23.314;2022-07-05T02:14:55;21.60;53.50
20911;DHT22;10615;42.702;23.314;2022-07-05T02:15:56;21.50;53.50
20911;DHT22;10615;42.702;23.314;2022-07-05T02:16:57;21.50;53.50
20911;DHT22;10615;42.702;23.314;2022-07-05T02:17:57;21.50;53.60
20911;DHT22;10615;42.702;23.314;2022-07-05T02:18:58;21.50;53.70
20911;DHT22;10615;42.702;23.314;2022-07-05T02:19:59;21.40;53.80
20911;DHT22;10615;42.702;23.314;2022-07-05T02:21:00;21.40;54.00
20911;DHT22;10615;42.702;23.314;2022-07-05T02:22:01;21.40;54.00
20911;DHT22;10615;42.702;23.314;2022-07-05T02:23:01;21.40;54.10
20911;DHT22;10615;42.702;23.314;2022-07-05T02:24:02;21.40;54.10
20911;DHT22;10615;42.702;23.314;2022-07-05T02:25:03;21.40;54.10
20911;DHT22;10615;42.702;23.314;2022-07-05T02:26:04;21.40;54.10
20911;DHT22;10615;42.702;23.314;2022-07-05T02:27:05;21.40;54.10
20911;DHT22;10615;42.702;23.314;2022-07-05T02:28:06;21.50;54.20
20911;DHT22;10615;42.702;23.314;2022-07-05T02:29:07;21.50;54.10
20911;DHT22;10615;42.702;23.314;2022-07-05T02:30:08;21.40;54.10
20911;DHT22;10615;42.702;23.314;2022-07-05T02:31:08;21.40;54.00
20911;DHT22;10615;42.702;23.314;2022-07-05T02:32:09;21.40;54.00
20911;DHT22;10615;42.702;23.314;2022-07-05T02:33:10;21.40;54.10
20911;DHT22;10615;42.702;23.314;2022-07-05T02:34:11;21.40;54.10
20911;DHT22;10615;42.702;23.314;2022-07-05T02:35:12;21.40;54.20
20911;DHT22;10615;42.702;23.314;2022-07-05T02:36:13;21.40;54.20
20911;DHT22;10615;42.702;23.314;2022-07-05T02:37:14;21.40;54.20
20911;DHT22;10615;42.702;23.314;2022-07-05T02:38:15;21.40;54.20
20911;DHT22;10615;42.702;23.314;2022-07-05T02:39:16;21.40;54.30
20911;DHT22;10615;42.702;23.314;2022-07-05T02:40:16;21.40;54.30
20911;DHT22;10615;42.702;23.314;2022-07-05T02:41:17;21.40;54.40
20911;DHT22;10615;42.702;23.314;2022-07-05T02:42:18;21.40;54.40
20911;DHT22;10615;42.702;23.314;2022-07-05T02:43:18;21.40;54.40
20911;DHT22;10615;42.702;23.314;2022-07-05T02:44:19;21.40;54.50
20911;DHT22;10615;42.702;23.314;2022-07-05T02:45:20;21.40;54.50
20911;DHT22;10615;42.702;23.314;2022-07-05T02:46:20;21.40;54.60
20911;DHT22;10615;42.702;23.314;2022-07-05T02:47:21;21.40;54.60
20911;DHT22;10615;42.702;23.314;2022-07-05T02:48:22;21.40;54.60
20911;DHT22;10615;42.702;23.314;2022-07-05T02:49:23;21.40;54.70
20911;DHT22;10615;42.702;23.314;2022-07-05T02:50:23;21.40;54.70
20911;DHT22;10615;42.702;23.314;2022-07-05T02:51:24;21.30;54.70
20911;DHT22;10615;42.702;23.314;2022-07-05T02:52:25;21.30;54.70
20911;DHT22;10615;42.702;23.314;2022-07-05T02:53:26;21.30;54.80
20911;DHT22;10615;42.702;23.314;2022-07-05T02:54:27;21.30;54.90
20911;DHT22;10615;42.702;23.314;2022-07-05T02:55:27;21.30;55.00
20911;DHT22;10615;42.702;23.314;2022-07-05T02:56:28;21.30;55.00
20911;DHT22;10615;42.702;23.314;2022-07-05T02:57:29;21.20;55.00
20911;DHT22;10615;42.702;23.314;2022-07-05T02:58:30;21.30;55.10
20911;DHT22;10615;42.702;23.314;2022-07-05T02:59:30;21.30;55.20
20911;DHT22;10615;42.702;23.314;2022-07-05T03:00:32;21.30;55.30
20911;DHT22;10615;42.702;23.314;2022-07-05T03:01:32;21.30;55.20
20911;DHT22;10615;42.702;23.314;2022-07-05T03:02:33;21.30;55.30
20911;DHT22;10615;42.702;23.314;2022-07-05T03:03:34;21.40;55.30
20911;DHT22;10615;42.702;23.314;2022-07-05T03:04:34;21.40;55.40
20911;DHT22;10615;42.702;23.314;2022-07-05T03:05:35;21.40;55.30
20911;DHT22;10615;42.702;23.314;2022-07-05T03:06:36;21.40;55.30
20911;DHT22;10615;42.702;23.314;2022-07-05T03:07:37;21.40;55.20
20911;DHT22;10615;42.702;23.314;2022-07-05T03:08:38;21.50;55.20
20911;DHT22;10615;42.702;23.314;2022-07-05T03:09:39;21.40;55.30
20911;DHT22;10615;42.702;23.314;2022-07-05T03:10:40;21.40;55.30
20911;DHT22;10615;42.702;23.314;2022-07-05T03:11:40;21.50;55.30
20911;DHT22;10615;42.702;23.314;2022-07-05T03:12:41;21.50;55.30
20911;DHT22;10615;42.702;23.314;2022-07-05T03:13:42;21.50;55.40
20911;DHT22;10615;42.702;23.314;2022-07-05T03:14:42;21.60;55.60
20911;DHT22;10615;42.702;23.314;2022-07-05T03:15:43;21.60;55.70
20911;DHT22;10615;42.702;23.314;2022-07-05T03:16:44;21.70;56.00
20911;DHT22;10615;42.702;23.314;2022-07-05T03:17:45;21.70;56.20
20911;DHT22;10615;42.702;23.314;2022-07-05T03:18:45;21.80;56.50
20911;DHT22;10615;42.702;23.314;2022-07-05T03:19:46;21.80;56.90
20911;DHT22;10615;42.702;23.314;2022-07-05T03:20:47;21.90;57.30
20911;DHT22;10615;42.702;23.314;2022-07-05T03:21:47;21.90;57.50
20911;DHT22;10615;42.702;23.314;2022-07-05T03:22:48;21.90;57.70
20911;DHT22;10615;42.702;23.314;2022-07-05T03:23:49;22.00;57.90
20911;DHT22;10615;42.702;23.314;2022-07-05T03:24:50;22.00;57.90
20911;DHT22;10615;42.702;23.314;2022-07-05T03:25:50;22.10;58.00
20911;DHT22;10615;42.702;23.314;2022-07-05T03:26:51;22.10;58.00
20911;DHT22;10615;42.702;23.314;2022-07-05T03:27:52;22.20;58.00
20911;DHT22;10615;42.702;23.314;2022-07-05T03:28:52;22.20;58.80
20911;DHT22;10615;42.702;23.314;2022-07-05T03:29:53;22.30;58.00
20911;DHT22;10615;42.702;23.314;2022-07-05T03:30:54;22.30;57.90
20911;DHT22;10615;42.702;23.314;2022-07-05T03:31:55;22.30;57.70
20911;DHT22;10615;42.702;23.314;2022-07-05T03:32:55;22.40;57.50
20911;DHT22;10615;42.702;23.314;2022-07-05T03:33:56;22.50;57.50
20911;DHT22;10615;42.702;23.314;2022-07-05T03:34:57;22.50;57.30
20911;DHT22;10615;42.702;23.314;2022-07-05T03:35:57;22.60;57.00
20911;DHT22;10615;42.702;23.314;2022-07-05T03:36:58;22.70;57.00
20911;DHT22;10615;42.702;23.314;2022-07-05T03:37:59;22.80;56.90
20911;DHT22;10615;42.702;23.314;2022-07-05T03:39:00;22.90;56.80
20911;DHT22;10615;42.702;23.314;2022-07-05T03:40:01;23.00;56.70
20911;DHT22;10615;42.702;23.314;2022-07-05T03:41:02;23.10;56.50
20911;DHT22;10615;42.702;23.314;2022-07-05T03:42:03;23.20;56.40
20911;DHT22;10615;42.702;23.314;2022-07-05T03:43:04;23.30;56.20
20911;DHT22;10615;42.702;23.314;2022-07-05T03:44:04;23.40;56.00
20911;DHT22;10615;42.702;23.314;2022-07-05T03:45:05;23.50;55.90
20911;DHT22;10615;42.702;23.314;2022-07-05T03:46:06;23.60;55.60
20911;DHT22;10615;42.702;23.314;2022-07-05T03:47:07;23.70;55.40
20911;DHT22;10615;42.702;23.314;2022-07-05T03:48:08;23.80;55.30
20911;DHT22;10615;42.702;23.314;2022-07-05T03:49:09;24.00;55.10
20911;DHT22;10615;42.702;23.314;2022-07-05T03:50:09;24.10;54.80
20911;DHT22;10615;42.702;23.314;2022-07-05T03:51:10;24.20;54.60
20911;DHT22;10615;42.702;23.314;2022-07-05T03:52:11;24.30;54.30
20911;DHT22;10615;42.702;23.314;2022-07-05T03:53:12;24.40;54.10
20911;DHT22;10615;42.702;23.314;2022-07-05T03:54:12;24.50;54.00
20911;DHT22;10615;42.702;23.314;2022-07-05T03:55:13;24.70;53.80
20911;DHT22;10615;42.702;23.314;2022-07-05T03:56:14;24.80;53.60
20911;DHT22;10615;42.702;23.314;2022-07-05T03:57:20;24.90;53.30
20911;DHT22;10615;42.702;23.314;2022-07-05T03:58:21;25.10;53.20
20911;DHT22;10615;42.702;23.314;2022-07-05T03:59:22;25.10;52.80
20911;DHT22;10615;42.702;23.314;2022-07-05T04:00:22;25.20;52.70
20911;DHT22;10615;42.702;23.314;2022-07-05T04:01:23;25.30;52.60
20911;DHT22;10615;42.702;23.314;2022-07-05T04:02:24;25.40;52.50
20911;DHT22;10615;42.702;23.314;2022-07-05T04:03:24;25.50;52.30
20911;DHT22;10615;42.702;23.314;2022-07-05T04:04:25;25.70;52.10
20911;DHT22;10615;42.702;23.314;2022-07-05T04:05:26;25.90;51.90
20911;DHT22;10615;42.702;23.314;2022-07-05T04:06:27;26.00;51.50
20911;DHT22;10615;42.702;23.314;2022-07-05T04:07:28;26.10;51.20
20911;DHT22;10615;42.702;23.314;2022-07-05T04:08:28;26.20;51.00
20911;DHT22;10615;42.702;23.314;2022-07-05T04:09:29;26.40;50.90
20911;DHT22;10615;42.702;23.314;2022-07-05T04:10:30;26.50;50.70
20911;DHT22;10615;42.702;23.314;2022-07-05T04:11:30;26.60;50.50
20911;DHT22;10615;42.702;23.314;2022-07-05T04:12:31;26.70;50.30
20911;DHT22;10615;42.702;23.314;2022-07-05T04:13:32;26.80;50.10
20911;DHT22;10615;42.702;23.314;2022-07-05T04:14:33;26.90;50.00
20911;DHT22;10615;42.702;23.314;2022-07-05T04:15:34;27.10;49.90
20911;DHT22;10615;42.702;23.314;2022-07-05T04:16:34;27.20;49.70
20911;DHT22;10615;42.702;23.314;2022-07-05T04:17:35;27.40;49.50
20911;DHT22;10615;42.702;23.314;2022-07-05T04:18:36;27.50;49.30
20911;DHT22;10615;42.702;23.314;2022-07-05T04:19:37;27.70;49.10
20911;DHT22;10615;42.702;23.314;2022-07-05T04:20:37;27.80;48.80
20911;DHT22;10615;42.702;23.314;2022-07-05T04:21:38;28.00;48.50
20911;DHT22;10615;42.702;23.314;2022-07-05T04:22:39;28.20;48.00
20911;DHT22;10615;42.702;23.314;2022-07-05T04:23:39;28.40;48.30
20911;DHT22;10615;42.702;23.314;2022-07-05T04:24:40;28.50;47.20
20911;DHT22;10615;42.702;23.314;2022-07-05T04:26:03;28.70;46.90
20911;DHT22;10615;42.702;23.314;2022-07-05T04:27:04;28.90;46.40
20911;DHT22;10615;42.702;23.314;2022-07-05T04:28:05;29.20;46.10
20911;DHT22;10615;42.702;23.314;2022-07-05T04:29:05;29.40;46.00
20911;DHT22;10615;42.702;23.314;2022-07-05T04:30:06;29.60;46.30
20911;DHT22;10615;42.702;23.314;2022-07-05T04:31:08;29.90;45.10
20911;DHT22;10615;42.702;23.314;2022-07-05T04:32:08;30.20;44.50
20911;DHT22;10615;42.702;23.314;2022-07-05T04:33:09;30.40;43.90
20911;DHT22;10615;42.702;23.314;2022-07-05T04:34:10;30.60;43.30
20911;DHT22;10615;42.702;23.314;2022-07-05T04:35:11;30.70;42.60
20911;DHT22;10615;42.702;23.314;2022-07-05T04:36:12;30.70;42.20
20911;DHT22;10615;42.702;23.314;2022-07-05T04:37:13;30.80;42.10
20911;DHT22;10615;42.702;23.314;2022-07-05T04:38:13;31.00;41.90
20911;DHT22;10615;42.702;23.314;2022-07-05T04:39:14;31.30;41.80
20911;DHT22;10615;42.702;23.314;2022-07-05T04:40:15;31.40;41.50
20911;DHT22;10615;42.702;23.314;2022-07-05T04:41:16;31.70;41.30
20911;DHT22;10615;42.702;23.314;2022-07-05T04:42:16;31.80;41.00
20911;DHT22;10615;42.702;23.314;2022-07-05T04:43:17;32.00;40.60
20911;DHT22;10615;42.702;23.314;2022-07-05T04:44:18;32.10;40.40
20911;DHT22;10615;42.702;23.314;2022-07-05T04:45:19;32.30;40.20
20911;DHT22;10615;42.702;23.314;2022-07-05T04:46:19;32.50;39.80
20911;DHT22;10615;42.702;23.314;2022-07-05T04:47:20;32.70;39.40
20911;DHT22;10615;42.702;23.314;2022-07-05T04:48:21;32.90;39.10
20911;DHT22;10615;42.702;23.314;2022-07-05T04:49:21;33.10;38.70
20911;DHT22;10615;42.702;23.314;2022-07-05T04:50:23;33.20;38.30
20911;DHT22;10615;42.702;23.314;2022-07-05T04:51:24;33.40;38.10
20911;DHT22;10615;42.702;23.314;2022-07-05T04:52:26;33.60;37.80
20911;DHT22;10615;42.702;23.314;2022-07-05T04:53:27;33.70;37.40
20911;DHT22;10615;42.702;23.314;2022-07-05T04:54:27;33.80;37.10
20911;DHT22;10615;42.702;23.314;2022-07-05T04:55:28;33.90;36.80
20911;DHT22;10615;42.702;23.314;2022-07-05T04:56:29;34.00;36.50
20911;DHT22;10615;42.702;23.314;2022-07-05T04:57:42;34.10;36.20
20911;DHT22;10615;42.702;23.314;2022-07-05T04:58:43;34.20;35.80
20911;DHT22;10615;42.702;23.314;2022-07-05T04:59:43;34.20;35.60
20911;DHT22;10615;42.702;23.314;2022-07-05T05:00:44;34.20;35.50
20911;DHT22;10615;42.702;23.314;2022-07-05T05:01:45;34.20;35.40
20911;DHT22;10615;42.702;23.314;2022-07-05T05:02:45;34.30;35.30
20911;DHT22;10615;42.702;23.314;2022-07-05T05:04:47;34.80;34.30
20911;DHT22;10615;42.702;23.314;2022-07-05T05:05:48;35.00;34.50
20911;DHT22;10615;42.702;23.314;2022-07-05T05:06:49;35.20;34.30
20911;DHT22;10615;42.702;23.314;2022-07-05T05:07:49;35.80;33.80
20911;DHT22;10615;42.702;23.314;2022-07-05T05:08:50;36.10;33.10
20911;DHT22;10615;42.702;23.314;2022-07-05T05:09:51;36.40;32.70
20911;DHT22;10615;42.702;23.314;2022-07-05T05:10:51;36.50;32.20
20911;DHT22;10615;42.702;23.314;2022-07-05T05:11:52;36.90;32.80
20911;DHT22;10615;42.702;23.314;2022-07-05T05:12:53;37.60;30.70
20911;DHT22;10615;42.702;23.314;2022-07-05T05:13:53;37.70;31.20
20911;DHT22;10615;42.702;23.314;2022-07-05T05:14:54;38.20;30.80
20911;DHT22;10615;42.702;23.314;2022-07-05T05:15:55;38.60;30.20
20911;DHT22;10615;42.702;23.314;2022-07-05T05:16:55;39.10;29.80
20911;DHT22;10615;42.702;23.314;2022-07-05T05:17:56;39.60;29.50
20911;DHT22;10615;42.702;23.314;2022-07-05T05:18:57;40.10;29.10
20911;DHT22;10615;42.702;23.314;2022-07-05T05:19:57;40.40;28.60
20911;DHT22;10615;42.702;23.314;2022-07-05T05:20:58;40.70;28.40
20911;DHT22;10615;42.702;23.314;2022-07-05T05:21:59;41.10;28.00
20911;DHT22;10615;42.702;23.314;2022-07-05T05:23:00;41.30;26.90
20911;DHT22;10615;42.702;23.314;2022-07-05T05:24:01;41.40;27.40
20911;DHT22;10615;42.702;23.314;2022-07-05T05:25:02;41.60;27.20
20911;DHT22;10615;42.702;23.314;2022-07-05T05:26:03;41.80;27.00
20911;DHT22;10615;42.702;23.314;2022-07-05T05:27:04;42.00;26.80
20911;DHT22;10615;42.702;23.314;2022-07-05T05:28:05;42.30;26.50
20911;DHT22;10615;42.702;23.314;2022-07-05T05:29:06;42.50;26.30
20911;DHT22;10615;42.702;23.314;2022-07-05T05:30:07;42.70;26.20
20911;DHT22;10615;42.702;23.314;2022-07-05T05:31:08;43.00;26.00
20911;DHT22;10615;42.702;23.314;2022-07-05T05:32:08;43.20;25.80
20911;DHT22;10615;42.702;23.314;2022-07-05T05:33:09;43.50;25.50
20911;DHT22;10615;42.702;23.314;2022-07-05T05:34:10;43.80;25.30
20911;DHT22;10615;42.702;23.314;2022-07-05T05:35:10;44.00;25.00
20911;DHT22;10615;42.702;23.314;2022-07-05T05:36:11;44.20;24.70
20911;DHT22;10615;42.702;23.314;2022-07-05T05:37:12;44.60;23.90
20911;DHT22;10615;42.702;23.314;2022-07-05T05:38:13;44.80;24.40
20911;DHT22;10615;42.702;23.314;2022-07-05T05:39:14;45.00;24.10
20911;DHT22;10615;42.702;23.314;2022-07-05T05:40:15;45.20;24.00
20911;DHT22;10615;42.702;23.314;2022-07-05T05:41:16;45.50;23.80
20911;DHT22;10615;42.702;23.314;2022-07-05T05:42:16;45.70;23.60
20911;DHT22;10615;42.702;23.314;2022-07-05T05:43:17;45.80;23.40
20911;DHT22;10615;42.702;23.314;2022-07-05T05:44:18;46.10;23.20
20911;DHT22;10615;42.702;23.314;2022-07-05T05:45:20;46.30;22.90
20911;DHT22;10615;42.702;23.314;2022-07-05T05:46:21;46.40;22.80
20911;DHT22;10615;42.702;23.314;2022-07-05T05:47:21;46.50;22.60
20911;DHT22;10615;42.702;23.314;2022-07-05T05:48:22;46.70;22.60
20911;DHT22;10615;42.702;23.314;2022-07-05T05:49:23;46.90;22.50
20911;DHT22;10615;42.702;23.314;2022-07-05T05:50:35;46.90;22.10
20911;DHT22;10615;42.702;23.314;2022-07-05T05:51:35;47.00;22.10
20911;DHT22;10615;42.702;23.314;2022-07-05T05:52:36;47.30;22.10
20911;DHT22;10615;42.702;23.314;2022-07-05T05:53:37;47.60;21.90
20911;DHT22;10615;42.702;23.314;2022-07-05T05:54:38;47.80;21.80
20911;DHT22;10615;42.702;23.314;2022-07-05T05:55:39;48.20;21.80
20911;DHT22;10615;42.702;23.314;2022-07-05T05:56:41;48.50;21.60
20911;DHT22;10615;42.702;23.314;2022-07-05T05:57:42;48.70;21.30
20911;DHT22;10615;42.702;23.314;2022-07-05T05:58:42;48.70;21.00
20911;DHT22;10615;42.702;23.314;2022-07-05T05:59:43;48.80;20.90
20911;DHT22;10615;42.702;23.314;2022-07-05T06:00:44;48.80;20.80
20911;DHT22;10615;42.702;23.314;2022-07-05T06:01:48;48.80;20.70
20911;DHT22;10615;42.702;23.314;2022-07-05T06:02:50;48.90;20.80
20911;DHT22;10615;42.702;23.314;2022-07-05T06:03:51;48.90;20.70
20911;DHT22;10615;42.702;23.314;2022-07-05T06:04:52;49.20;20.70
20911;DHT22;10615;42.702;23.314;2022-07-05T06:05:53;49.50;20.60
20911;DHT22;10615;42.702;23.314;2022-07-05T06:06:53;49.60;20.40
20911;DHT22;10615;42.702;23.314;2022-07-05T06:07:55;49.70;20.40
20911;DHT22;10615;42.702;23.314;2022-07-05T06:08:56;50.00;20.40
20911;DHT22;10615;42.702;23.314;2022-07-05T06:09:57;50.40;20.10
20911;DHT22;10615;42.702;23.314;2022-07-05T06:10:57;50.60;19.80
20911;DHT22;10615;42.702;23.314;2022-07-05T06:11:58;50.50;19.60
20911;DHT22;10615;42.702;23.314;2022-07-05T06:13:02;50.70;19.60
20911;DHT22;10615;42.702;23.314;2022-07-05T06:14:03;50.70;19.30
20911;DHT22;10615;42.702;23.314;2022-07-05T06:15:04;50.50;19.30
20911;DHT22;10615;42.702;23.314;2022-07-05T06:16:06;50.50;19.50
20911;DHT22;10615;42.702;23.314;2022-07-05T06:17:07;50.60;19.60
20911;DHT22;10615;42.702;23.314;2022-07-05T06:18:09;50.80;19.40
20911;DHT22;10615;42.702;23.314;2022-07-05T06:19:09;51.20;19.40
20911;DHT22;10615;42.702;23.314;2022-07-05T06:20:14;51.30;19.10
20911;DHT22;10615;42.702;23.314;2022-07-05T06:21:15;51.40;19.00
20911;DHT22;10615;42.702;23.314;2022-07-05T06:22:16;51.60;19.40